sensor_id;sensor_type;location;lat;lon;timestamp;P1;durP1;ratioP1;P2;durP2;ratioP2
2954;SDS011;1487;51.470;6.938;2023-04-24T00:01:04;0.50;;;0.40;;
2954;SDS011;1487;51.470;6.938;2023-04-24T00:03:32;0.50;;;0.40;;
2954;SDS011;1487;51.470;6.938;2023-04-24T00:05:59;0.50;;;0.32;;
2954;SDS011;1487;51.470;6.938;2023-04-24T00:08:27;0.50;;;0.40;;
2954;SDS011;1487;51.470;6.938;2023-04-24T00:10:54;0.52;;;0.52;;
2954;SDS011;1487;51.470;6.938;2023-04-24T00:13:21;0.50;;;0.40;;
2954;SDS011;1487;51.470;6.938;2023-04-24T00:15:47;0.77;;;0.40;;
2954;SDS011;1487;51.470;6.938;2023-04-24T00:18:15;1.30;;;0.82;;
2954;SDS011;1487;51.470;6.938;2023-04-24T00:20:42;0.50;;;0.40;;
2954;SDS011;1487;51.470;6.938;2023-04-24T00:23:09;0.50;;;0.50;;
2954;SDS011;1487;51.470;6.938;2023-04-24T00:25:36;0.57;;;0.43;;
2954;SDS011;1487;51.470;6.938;2023-04-24T00:28:03;0.60;;;0.60;;
2954;SDS011;1487;51.470;6.938;2023-04-24T00:30:30;0.70;;;0.70;;
2954;SDS011;1487;51.470;6.938;2023-04-24T00:32:57;0.60;;;0.50;;
2954;SDS011;1487;51.470;6.938;2023-04-24T00:35:25;0.88;;;0.88;;
2954;SDS011;1487;51.470;6.938;2023-04-24T00:37:51;0.80;;;0.80;;
2954;SDS011;1487;51.470;6.938;2023-04-24T00:40:18;0.50;;;0.50;;
2954;SDS011;1487;51.470;6.938;2023-04-24T00:42:45;0.60;;;0.52;;
2954;SDS011;1487;51.470;6.938;2023-04-24T00:45:12;0.70;;;0.57;;
2954;SDS011;1487;51.470;6.938;2023-04-24T00:47:39;0.50;;;0.40;;
2954;SDS011;1487;51.470;6.938;2023-04-24T00:50:08;0.77;;;0.63;;
2954;SDS011;1487;51.470;6.938;2023-04-24T00:52:37;0.60;;;0.57;;
2954;SDS011;1487;51.470;6.938;2023-04-24T00:55:05;0.70;;;0.70;;
2954;SDS011;1487;51.470;6.938;2023-04-24T00:57:33;0.60;;;0.60;;
2954;SDS011;1487;51.470;6.938;2023-04-24T01:00:00;0.80;;;0.80;;
2954;SDS011;1487;51.470;6.938;2023-04-24T01:02:28;2.50;;;1.30;;
2954;SDS011;1487;51.470;6.938;2023-04-24T01:04:55;0.90;;;0.70;;
2954;SDS011;1487;51.470;6.938;2023-04-24T01:07:22;0.70;;;0.68;;
2954;SDS011;1487;51.470;6.938;2023-04-24T01:09:50;0.50;;;0.40;;
2954;SDS011;1487;51.470;6.938;2023-04-24T01:12:17;0.70;;;0.70;;
2954;SDS011;1487;51.470;6.938;2023-04-24T01:14:44;3.20;;;1.55;;
2954;SDS011;1487;51.470;6.938;2023-04-24T01:17:11;3.78;;;2.28;;
2954;SDS011;1487;51.470;6.938;2023-04-24T01:19:38;1.67;;;1.30;;
2954;SDS011;1487;51.470;6.938;2023-04-24T01:22:09;2.28;;;0.88;;
2954;SDS011;1487;51.470;6.938;2023-04-24T01:24:36;1.40;;;1.20;;
2954;SDS011;1487;51.470;6.938;2023-04-24T01:27:03;1.92;;;1.83;;
2954;SDS011;1487;51.470;6.938;2023-04-24T01:29:30;8.60;;;1.83;;
2954;SDS011;1487;51.470;6.938;2023-04-24T01:31:57;1.55;;;1.35;;
2954;SDS011;1487;51.470;6.938;2023-04-24T01:34:25;2.13;;;1.60;;
2954;SDS011;1487;51.470;6.938;2023-04-24T01:36:52;3.22;;;2.38;;
2954;SDS011;1487;51.470;6.938;2023-04-24T01:39:20;3.33;;;2.03;;
2954;SDS011;1487;51.470;6.938;2023-04-24T01:41:48;0.60;;;0.50;;
2954;SDS011;1487;51.470;6.938;2023-04-24T01:44:15;1.45;;;1.45;;
2954;SDS011;1487;51.470;6.938;2023-04-24T01:46:42;0.93;;;0.93;;
2954;SDS011;1487;51.470;6.938;2023-04-24T01:49:09;0.98;;;0.85;;
2954;SDS011;1487;51.470;6.938;2023-04-24T01:51:36;1.10;;;1.10;;
2954;SDS011;1487;51.470;6.938;2023-04-24T01:54:03;0.82;;;0.82;;
2954;SDS011;1487;51.470;6.938;2023-04-24T01:56:32;1.80;;;1.20;;
2954;SDS011;1487;51.470;6.938;2023-04-24T01:59:00;2.15;;;1.85;;
2954;SDS011;1487;51.470;6.938;2023-04-24T02:01:32;1.85;;;1.35;;
2954;SDS011;1487;51.470;6.938;2023-04-24T02:04:01;0.80;;;0.60;;
2954;SDS011;1487;51.470;6.938;2023-04-24T02:06:28;0.50;;;0.40;;
2954;SDS011;1487;51.470;6.938;2023-04-24T02:08:56;5.30;;;2.53;;
2954;SDS011;1487;51.470;6.938;2023-04-24T02:11:23;4.82;;;2.70;;
2954;SDS011;1487;51.470;6.938;2023-04-24T02:13:51;33.95;;;3.33;;
2954;SDS011;1487;51.470;6.938;2023-04-24T02:16:18;4.15;;;2.10;;
2954;SDS011;1487;51.470;6.938;2023-04-24T02:18:45;1.15;;;1.13;;
2954;SDS011;1487;51.470;6.938;2023-04-24T02:21:12;0.70;;;0.70;;
2954;SDS011;1487;51.470;6.938;2023-04-24T02:23:39;2.25;;;2.15;;
2954;SDS011;1487;51.470;6.938;2023-04-24T02:26:05;1.73;;;1.63;;
2954;SDS011;1487;51.470;6.938;2023-04-24T02:28:32;2.15;;;1.95;;
2954;SDS011;1487;51.470;6.938;2023-04-24T02:31:01;3.10;;;2.97;;
2954;SDS011;1487;51.470;6.938;2023-04-24T02:33:27;0.82;;;0.82;;
2954;SDS011;1487;51.470;6.938;2023-04-24T02:35:54;2.97;;;1.77;;
2954;SDS011;1487;51.470;6.938;2023-04-24T02:38:21;0.93;;;0.65;;
2954;SDS011;1487;51.470;6.938;2023-04-24T02:40:48;2.78;;;2.58;;
2954;SDS011;1487;51.470;6.938;2023-04-24T02:43:14;1.58;;;1.48;;
2954;SDS011;1487;51.470;6.938;2023-04-24T02:45:41;2.05;;;1.85;;
2954;SDS011;1487;51.470;6.938;2023-04-24T02:48:09;5.75;;;3.05;;
2954;SDS011;1487;51.470;6.938;2023-04-24T02:50:36;1.55;;;1.45;;
2954;SDS011;1487;51.470;6.938;2023-04-24T02:53:03;3.55;;;2.45;;
2954;SDS011;1487;51.470;6.938;2023-04-24T02:55:29;6.20;;;2.92;;
2954;SDS011;1487;51.470;6.938;2023-04-24T02:57:56;10.48;;;5.00;;
2954;SDS011;1487;51.470;6.938;2023-04-24T03:00:23;5.55;;;3.83;;
2954;SDS011;1487;51.470;6.938;2023-04-24T03:02:50;8.70;;;4.25;;
2954;SDS011;1487;51.470;6.938;2023-04-24T03:05:18;2.08;;;1.88;;
2954;SDS011;1487;51.470;6.938;2023-04-24T03:07:45;1.45;;;1.35;;
2954;SDS011;1487;51.470;6.938;2023-04-24T03:10:11;1.90;;;1.80;;
2954;SDS011;1487;51.470;6.938;2023-04-24T03:12:38;3.70;;;1.98;;
2954;SDS011;1487;51.470;6.938;2023-04-24T03:15:06;5.22;;;1.13;;
2954;SDS011;1487;51.470;6.938;2023-04-24T03:17:33;2.45;;;2.05;;
2954;SDS011;1487;51.470;6.938;2023-04-24T03:20:00;2.05;;;1.63;;
2954;SDS011;1487;51.470;6.938;2023-04-24T03:22:28;37.97;;;4.32;;
2954;SDS011;1487;51.470;6.938;2023-04-24T03:24:57;1.52;;;1.40;;
2954;SDS011;1487;51.470;6.938;2023-04-24T03:27:24;8.68;;;4.55;;
2954;SDS011;1487;51.470;6.938;2023-04-24T03:29:51;4.50;;;4.20;;
2954;SDS011;1487;51.470;6.938;2023-04-24T03:32:20;2.47;;;1.90;;
2954;SDS011;1487;51.470;6.938;2023-04-24T03:34:47;0.70;;;0.70;;
2954;SDS011;1487;51.470;6.938;2023-04-24T03:37:14;7.45;;;4.45;;
2954;SDS011;1487;51.470;6.938;2023-04-24T03:39:42;4.00;;;3.20;;
2954;SDS011;1487;51.470;6.938;2023-04-24T03:42:09;4.72;;;4.32;;
2954;SDS011;1487;51.470;6.938;2023-04-24T03:44:36;2.15;;;2.05;;
2954;SDS011;1487;51.470;6.938;2023-04-24T03:47:03;3.33;;;3.03;;
2954;SDS011;1487;51.470;6.938;2023-04-24T03:49:30;11.57;;;6.20;;
2954;SDS011;1487;51.470;6.938;2023-04-24T03:51:56;4.00;;;3.70;;
2954;SDS011;1487;51.470;6.938;2023-04-24T03:54:23;6.47;;;3.50;;
2954;SDS011;1487;51.470;6.938;2023-04-24T03:56:51;13.07;;;4.28;;
2954;SDS011;1487;51.470;6.938;2023-04-24T03:59:18;4.35;;;3.30;;
2954;SDS011;1487;51.470;6.938;2023-04-24T04:01:45;3.25;;;2.42;;
2954;SDS011;1487;51.470;6.938;2023-04-24T04:04:12;1.35;;;1.25;;
2954;SDS011;1487;51.470;6.938;2023-04-24T04:06:38;3.50;;;3.13;;
2954;SDS011;1487;51.470;6.938;2023-04-24T04:09:05;1.30;;;1.20;;
2954;SDS011;1487;51.470;6.938;2023-04-24T04:11:33;4.70;;;3.85;;
2954;SDS011;1487;51.470;6.938;2023-04-24T04:14:02;40.25;;;4.75;;
2954;SDS011;1487;51.470;6.938;2023-04-24T04:16:28;9.07;;;3.95;;
2954;SDS011;1487;51.470;6.938;2023-04-24T04:18:55;3.13;;;2.90;;
2954;SDS011;1487;51.470;6.938;2023-04-24T04:21:22;16.42;;;3.80;;
2954;SDS011;1487;51.470;6.938;2023-04-24T04:23:49;4.47;;;3.58;;
2954;SDS011;1487;51.470;6.938;2023-04-24T04:26:15;1.58;;;1.48;;
2954;SDS011;1487;51.470;6.938;2023-04-24T04:28:44;10.32;;;3.92;;
2954;SDS011;1487;51.470;6.938;2023-04-24T04:31:12;9.13;;;3.42;;
2954;SDS011;1487;51.470;6.938;2023-04-24T04:33:38;8.80;;;3.85;;
2954;SDS011;1487;51.470;6.938;2023-04-24T04:36:05;4.68;;;3.92;;
2954;SDS011;1487;51.470;6.938;2023-04-24T04:38:33;5.13;;;4.72;;
2954;SDS011;1487;51.470;6.938;2023-04-24T04:41:00;2.35;;;2.08;;
2954;SDS011;1487;51.470;6.938;2023-04-24T04:43:27;3.65;;;2.80;;
2954;SDS011;1487;51.470;6.938;2023-04-24T04:45:54;7.53;;;4.90;;
2954;SDS011;1487;51.470;6.938;2023-04-24T04:48:22;5.05;;;2.83;;
2954;SDS011;1487;51.470;6.938;2023-04-24T04:50:49;4.35;;;2.90;;
2954;SDS011;1487;51.470;6.938;2023-04-24T04:53:16;6.93;;;3.83;;
2954;SDS011;1487;51.470;6.938;2023-04-24T04:55:42;4.93;;;2.28;;
2954;SDS011;1487;51.470;6.938;2023-04-24T04:58:09;4.50;;;4.10;;
2954;SDS011;1487;51.470;6.938;2023-04-24T05:00:36;7.65;;;3.25;;
2954;SDS011;1487;51.470;6.938;2023-04-24T05:03:03;6.38;;;3.55;;
2954;SDS011;1487;51.470;6.938;2023-04-24T05:05:31;3.33;;;2.58;;
2954;SDS011;1487;51.470;6.938;2023-04-24T05:07:58;9.95;;;4.22;;
2954;SDS011;1487;51.470;6.938;2023-04-24T05:10:25;2.55;;;2.35;;
2954;SDS011;1487;51.470;6.938;2023-04-24T05:12:51;9.25;;;2.65;;
2954;SDS011;1487;51.470;6.938;2023-04-24T05:15:18;8.63;;;4.05;;
2954;SDS011;1487;51.470;6.938;2023-04-24T05:17:45;3.10;;;1.30;;
2954;SDS011;1487;51.470;6.938;2023-04-24T05:20:12;2.40;;;1.85;;
2954;SDS011;1487;51.470;6.938;2023-04-24T05:22:41;2.78;;;1.95;;
2954;SDS011;1487;51.470;6.938;2023-04-24T05:25:08;4.95;;;3.35;;
2954;SDS011;1487;51.470;6.938;2023-04-24T05:27:35;3.95;;;3.40;;
2954;SDS011;1487;51.470;6.938;2023-04-24T05:30:02;3.67;;;2.05;;
2954;SDS011;1487;51.470;6.938;2023-04-24T05:32:29;7.40;;;4.20;;
2954;SDS011;1487;51.470;6.938;2023-04-24T05:34:56;9.82;;;4.07;;
2954;SDS011;1487;51.470;6.938;2023-04-24T05:37:23;5.88;;;3.63;;
2954;SDS011;1487;51.470;6.938;2023-04-24T05:39:51;2.17;;;2.08;;
2954;SDS011;1487;51.470;6.938;2023-04-24T05:42:18;6.32;;;3.35;;
2954;SDS011;1487;51.470;6.938;2023-04-24T05:44:44;8.35;;;4.38;;
2954;SDS011;1487;51.470;6.938;2023-04-24T05:47:11;3.58;;;2.50;;
2954;SDS011;1487;51.470;6.938;2023-04-24T05:49:38;5.35;;;4.78;;
2954;SDS011;1487;51.470;6.938;2023-04-24T05:52:05;1.25;;;1.15;;
2954;SDS011;1487;51.470;6.938;2023-04-24T05:54:33;0.82;;;0.82;;
2954;SDS011;1487;51.470;6.938;2023-04-24T05:57:01;12.55;;;2.78;;
2954;SDS011;1487;51.470;6.938;2023-04-24T05:59:32;4.43;;;1.90;;
2954;SDS011;1487;51.470;6.938;2023-04-24T06:01:59;3.47;;;2.30;;
2954;SDS011;1487;51.470;6.938;2023-04-24T06:04:26;4.50;;;4.10;;
2954;SDS011;1487;51.470;6.938;2023-04-24T06:06:52;3.60;;;3.33;;
2954;SDS011;1487;51.470;6.938;2023-04-24T06:09:21;1.67;;;1.58;;
2954;SDS011;1487;51.470;6.938;2023-04-24T06:11:49;2.55;;;2.35;;
2954;SDS011;1487;51.470;6.938;2023-04-24T06:14:19;5.50;;;3.20;;
2954;SDS011;1487;51.470;6.938;2023-04-24T06:16:46;2.65;;;2.17;;
2954;SDS011;1487;51.470;6.938;2023-04-24T06:19:12;5.55;;;3.22;;
2954;SDS011;1487;51.470;6.938;2023-04-24T06:21:39;4.07;;;3.70;;
2954;SDS011;1487;51.470;6.938;2023-04-24T06:24:06;3.20;;;2.90;;
2954;SDS011;1487;51.470;6.938;2023-04-24T06:26:33;5.15;;;2.42;;
2954;SDS011;1487;51.470;6.938;2023-04-24T06:29:00;7.85;;;3.13;;
2954;SDS011;1487;51.470;6.938;2023-04-24T06:31:28;3.63;;;2.53;;
2954;SDS011;1487;51.470;6.938;2023-04-24T06:33:54;4.00;;;3.70;;
2954;SDS011;1487;51.470;6.938;2023-04-24T06:36:21;1.73;;;1.65;;
2954;SDS011;1487;51.470;6.938;2023-04-24T06:38:48;4.00;;;3.42;;
2954;SDS011;1487;51.470;6.938;2023-04-24T06:41:15;2.83;;;2.28;;
2954;SDS011;1487;51.470;6.938;2023-04-24T06:43:42;4.45;;;3.20;;
2954;SDS011;1487;51.470;6.938;2023-04-24T06:46:09;1.42;;;1.35;;
2954;SDS011;1487;51.470;6.938;2023-04-24T06:48:38;3.70;;;3.40;;
2954;SDS011;1487;51.470;6.938;2023-04-24T06:51:05;2.58;;;1.35;;
2954;SDS011;1487;51.470;6.938;2023-04-24T06:53:32;2.08;;;1.75;;
2954;SDS011;1487;51.470;6.938;2023-04-24T06:55:59;1.83;;;1.70;;
2954;SDS011;1487;51.470;6.938;2023-04-24T06:58:26;3.40;;;2.17;;
2954;SDS011;1487;51.470;6.938;2023-04-24T07:00:52;6.15;;;2.95;;
2954;SDS011;1487;51.470;6.938;2023-04-24T07:03:19;3.65;;;1.67;;
2954;SDS011;1487;51.470;6.938;2023-04-24T07:05:47;3.85;;;2.28;;
2954;SDS011;1487;51.470;6.938;2023-04-24T07:08:14;3.88;;;2.55;;
2954;SDS011;1487;51.470;6.938;2023-04-24T07:10:42;2.92;;;2.60;;
2954;SDS011;1487;51.470;6.938;2023-04-24T07:13:09;0.73;;;0.73;;
2954;SDS011;1487;51.470;6.938;2023-04-24T07:15:36;7.28;;;3.65;;
2954;SDS011;1487;51.470;6.938;2023-04-24T07:18:03;3.55;;;2.92;;
2954;SDS011;1487;51.470;6.938;2023-04-24T07:20:30;1.33;;;0.95;;
2954;SDS011;1487;51.470;6.938;2023-04-24T07:22:59;6.57;;;3.75;;
2954;SDS011;1487;51.470;6.938;2023-04-24T07:25:26;2.25;;;2.05;;
2954;SDS011;1487;51.470;6.938;2023-04-24T07:27:53;1.95;;;1.75;;
2954;SDS011;1487;51.470;6.938;2023-04-24T07:30:20;3.45;;;2.25;;
2954;SDS011;1487;51.470;6.938;2023-04-24T07:32:46;2.35;;;2.20;;
2954;SDS011;1487;51.470;6.938;2023-04-24T07:35:13;2.67;;;1.40;;
2954;SDS011;1487;51.470;6.938;2023-04-24T07:37:40;0.95;;;0.95;;
2954;SDS011;1487;51.470;6.938;2023-04-24T07:40:12;2.90;;;2.70;;
2954;SDS011;1487;51.470;6.938;2023-04-24T07:42:39;4.53;;;3.90;;
2954;SDS011;1487;51.470;6.938;2023-04-24T07:45:06;0.95;;;0.95;;
2954;SDS011;1487;51.470;6.938;2023-04-24T07:47:33;1.85;;;1.10;;
2954;SDS011;1487;51.470;6.938;2023-04-24T07:50:01;0.80;;;0.50;;
2954;SDS011;1487;51.470;6.938;2023-04-24T07:52:28;1.30;;;1.20;;
2954;SDS011;1487;51.470;6.938;2023-04-24T07:54:55;1.30;;;1.20;;
2954;SDS011;1487;51.470;6.938;2023-04-24T07:57:26;1.00;;;1.00;;
2954;SDS011;1487;51.470;6.938;2023-04-24T07:59:53;0.80;;;0.73;;
2954;SDS011;1487;51.470;6.938;2023-04-24T08:02:20;0.70;;;0.68;;
2954;SDS011;1487;51.470;6.938;2023-04-24T08:04:51;0.60;;;0.60;;
2954;SDS011;1487;51.470;6.938;2023-04-24T08:07:19;0.70;;;0.60;;
2954;SDS011;1487;51.470;6.938;2023-04-24T08:09:45;0.70;;;0.60;;
2954;SDS011;1487;51.470;6.938;2023-04-24T08:12:13;0.70;;;0.70;;
2954;SDS011;1487;51.470;6.938;2023-04-24T08:14:41;1.17;;;0.60;;
2954;SDS011;1487;51.470;6.938;2023-04-24T08:17:08;4.95;;;1.58;;
2954;SDS011;1487;51.470;6.938;2023-04-24T08:19:35;0.50;;;0.40;;
2954;SDS011;1487;51.470;6.938;2023-04-24T08:22:01;0.50;;;0.40;;
2954;SDS011;1487;51.470;6.938;2023-04-24T08:24:29;1.10;;;1.00;;
2954;SDS011;1487;51.470;6.938;2023-04-24T08:26:56;1.88;;;0.95;;
2954;SDS011;1487;51.470;6.938;2023-04-24T08:29:23;1.13;;;1.00;;
2954;SDS011;1487;51.470;6.938;2023-04-24T08:31:51;0.98;;;0.93;;
2954;SDS011;1487;51.470;6.938;2023-04-24T08:34:19;2.15;;;1.08;;
2954;SDS011;1487;51.470;6.938;2023-04-24T08:36:46;0.60;;;0.60;;
2954;SDS011;1487;51.470;6.938;2023-04-24T08:39:13;0.70;;;0.70;;
2954;SDS011;1487;51.470;6.938;2023-04-24T08:41:42;2.85;;;1.60;;
2954;SDS011;1487;51.470;6.938;2023-04-24T08:44:10;0.50;;;0.40;;
2954;SDS011;1487;51.470;6.938;2023-04-24T08:46:37;1.38;;;1.38;;
2954;SDS011;1487;51.470;6.938;2023-04-24T08:49:08;0.82;;;0.82;;
2954;SDS011;1487;51.470;6.938;2023-04-24T08:51:35;0.98;;;0.80;;
2954;SDS011;1487;51.470;6.938;2023-04-24T08:54:03;1.23;;;1.13;;
2954;SDS011;1487;51.470;6.938;2023-04-24T08:56:32;0.80;;;0.80;;
2954;SDS011;1487;51.470;6.938;2023-04-24T08:59:02;0.60;;;0.60;;
2954;SDS011;1487;51.470;6.938;2023-04-24T09:01:30;0.50;;;0.40;;
2954;SDS011;1487;51.470;6.938;2023-04-24T09:04:00;0.60;;;0.60;;
2954;SDS011;1487;51.470;6.938;2023-04-24T09:06:32;0.50;;;0.50;;
2954;SDS011;1487;51.470;6.938;2023-04-24T09:09:00;0.50;;;0.40;;
2954;SDS011;1487;51.470;6.938;2023-04-24T09:11:29;0.70;;;0.70;;
2954;SDS011;1487;51.470;6.938;2023-04-24T09:13:57;0.60;;;0.60;;
2954;SDS011;1487;51.470;6.938;2023-04-24T09:16:25;0.50;;;0.50;;
2954;SDS011;1487;51.470;6.938;2023-04-24T09:18:52;2.25;;;1.77;;
2954;SDS011;1487;51.470;6.938;2023-04-24T09:21:20;1.05;;;0.73;;
2954;SDS011;1487;51.470;6.938;2023-04-24T09:23:58;0.80;;;0.70;;
2954;SDS011;1487;51.470;6.938;2023-04-24T09:26:26;0.85;;;0.85;;
2954;SDS011;1487;51.470;6.938;2023-04-24T09:28:56;0.73;;;0.73;;
2954;SDS011;1487;51.470;6.938;2023-04-24T09:31:24;0.90;;;0.90;;
2954;SDS011;1487;51.470;6.938;2023-04-24T09:33:53;1.13;;;1.10;;
2954;SDS011;1487;51.470;6.938;2023-04-24T09:36:26;2.72;;;2.53;;
2954;SDS011;1487;51.470;6.938;2023-04-24T09:38:58;6.82;;;1.23;;
2954;SDS011;1487;51.470;6.938;2023-04-24T09:41:26;2.25;;;0.88;;
2954;SDS011;1487;51.470;6.938;2023-04-24T09:43:53;0.50;;;0.50;;
2954;SDS011;1487;51.470;6.938;2023-04-24T09:46:21;1.10;;;1.05;;
2954;SDS011;1487;51.470;6.938;2023-04-24T09:48:55;4.15;;;0.85;;
2954;SDS011;1487;51.470;6.938;2023-04-24T09:51:32;1.02;;;1.02;;
2954;SDS011;1487;51.470;6.938;2023-04-24T09:54:01;3.05;;;2.08;;
2954;SDS011;1487;51.470;6.938;2023-04-24T09:56:29;5.57;;;2.65;;
2954;SDS011;1487;51.470;6.938;2023-04-24T09:59:04;1.98;;;1.40;;
2954;SDS011;1487;51.470;6.938;2023-04-24T10:01:32;2.03;;;1.93;;
2954;SDS011;1487;51.470;6.938;2023-04-24T10:03:59;0.73;;;0.73;;
2954;SDS011;1487;51.470;6.938;2023-04-24T10:06:29;2.70;;;1.70;;
2954;SDS011;1487;51.470;6.938;2023-04-24T10:08:57;2.60;;;1.40;;
2954;SDS011;1487;51.470;6.938;2023-04-24T10:11:27;1.55;;;1.45;;
2954;SDS011;1487;51.470;6.938;2023-04-24T10:13:54;1.48;;;1.23;;
2954;SDS011;1487;51.470;6.938;2023-04-24T10:16:22;1.50;;;1.00;;
2954;SDS011;1487;51.470;6.938;2023-04-24T10:18:52;2.00;;;1.13;;
2954;SDS011;1487;51.470;6.938;2023-04-24T10:21:19;1.67;;;1.58;;
2954;SDS011;1487;51.470;6.938;2023-04-24T10:23:46;4.47;;;4.20;;
2954;SDS011;1487;51.470;6.938;2023-04-24T10:26:15;1.65;;;1.27;;
2954;SDS011;1487;51.470;6.938;2023-04-24T10:28:46;1.95;;;1.00;;
2954;SDS011;1487;51.470;6.938;2023-04-24T10:31:13;7.30;;;3.15;;
2954;SDS011;1487;51.470;6.938;2023-04-24T10:33:41;2.55;;;2.25;;
2954;SDS011;1487;51.470;6.938;2023-04-24T10:36:09;1.25;;;0.90;;
2954;SDS011;1487;51.470;6.938;2023-04-24T10:38:37;3.92;;;2.33;;
2954;SDS011;1487;51.470;6.938;2023-04-24T10:41:07;3.05;;;1.33;;
2954;SDS011;1487;51.470;6.938;2023-04-24T10:43:39;0.70;;;0.70;;
2954;SDS011;1487;51.470;6.938;2023-04-24T10:46:08;17.60;;;2.15;;
2954;SDS011;1487;51.470;6.938;2023-04-24T10:48:35;0.80;;;0.63;;
2954;SDS011;1487;51.470;6.938;2023-04-24T10:51:10;1.88;;;0.98;;
2954;SDS011;1487;51.470;6.938;2023-04-24T10:53:38;1.08;;;0.98;;
2954;SDS011;1487;51.470;6.938;2023-04-24T10:56:06;0.50;;;0.50;;
2954;SDS011;1487;51.470;6.938;2023-04-24T10:58:36;0.50;;;0.50;;
2954;SDS011;1487;51.470;6.938;2023-04-24T11:01:05;0.50;;;0.40;;
2954;SDS011;1487;51.470;6.938;2023-04-24T11:03:34;0.77;;;0.77;;
2954;SDS011;1487;51.470;6.938;2023-04-24T11:06:02;1.83;;;1.50;;
2954;SDS011;1487;51.470;6.938;2023-04-24T11:08:31;1.98;;;1.30;;
2954;SDS011;1487;51.470;6.938;2023-04-24T11:11:04;0.50;;;0.40;;
2954;SDS011;1487;51.470;6.938;2023-04-24T11:16:28;2.10;;;1.58;;
2954;SDS011;1487;51.470;6.938;2023-04-24T11:19:02;0.80;;;0.70;;
2954;SDS011;1487;51.470;6.938;2023-04-24T11:21:31;3.53;;;0.80;;
2954;SDS011;1487;51.470;6.938;2023-04-24T11:26:53;1.30;;;1.30;;
2954;SDS011;1487;51.470;6.938;2023-04-24T11:29:21;6.15;;;1.70;;
2954;SDS011;1487;51.470;6.938;2023-04-24T11:31:49;0.75;;;0.75;;
2954;SDS011;1487;51.470;6.938;2023-04-24T11:34:17;0.88;;;0.88;;
2954;SDS011;1487;51.470;6.938;2023-04-24T11:36:45;0.50;;;0.40;;
2954;SDS011;1487;51.470;6.938;2023-04-24T11:39:13;4.68;;;4.38;;
2954;SDS011;1487;51.470;6.938;2023-04-24T11:41:40;2.83;;;2.53;;
2954;SDS011;1487;51.470;6.938;2023-04-24T11:44:07;1.00;;;0.90;;
2954;SDS011;1487;51.470;6.938;2023-04-24T11:46:35;0.85;;;0.70;;
2954;SDS011;1487;51.470;6.938;2023-04-24T11:49:02;0.50;;;0.40;;
2954;SDS011;1487;51.470;6.938;2023-04-24T11:51:32;2.00;;;1.40;;
2954;SDS011;1487;51.470;6.938;2023-04-24T11:54:00;1.23;;;1.23;;
2954;SDS011;1487;51.470;6.938;2023-04-24T11:56:27;0.50;;;0.40;;
2954;SDS011;1487;51.470;6.938;2023-04-24T11:58:53;0.50;;;0.40;;
2954;SDS011;1487;51.470;6.938;2023-04-24T12:01:20;0.60;;;0.60;;
2954;SDS011;1487;51.470;6.938;2023-04-24T12:03:48;0.60;;;0.60;;
2954;SDS011;1487;51.470;6.938;2023-04-24T12:06:16;1.40;;;1.30;;
2954;SDS011;1487;51.470;6.938;2023-04-24T12:08:46;0.80;;;0.80;;
2954;SDS011;1487;51.470;6.938;2023-04-24T12:11:15;0.80;;;0.80;;
2954;SDS011;1487;51.470;6.938;2023-04-24T12:13:44;1.25;;;1.13;;
2954;SDS011;1487;51.470;6.938;2023-04-24T12:16:11;1.77;;;1.17;;
2954;SDS011;1487;51.470;6.938;2023-04-24T12:18:42;24.58;;;1.88;;
2954;SDS011;1487;51.470;6.938;2023-04-24T12:21:20;0.70;;;0.57;;
2954;SDS011;1487;51.470;6.938;2023-04-24T12:23:53;0.70;;;0.70;;
2954;SDS011;1487;51.470;6.938;2023-04-24T12:26:21;0.70;;;0.60;;
2954;SDS011;1487;51.470;6.938;2023-04-24T12:28:49;0.60;;;0.57;;
2954;SDS011;1487;51.470;6.938;2023-04-24T12:31:16;0.50;;;0.50;;
2954;SDS011;1487;51.470;6.938;2023-04-24T12:33:43;0.50;;;0.50;;
2954;SDS011;1487;51.470;6.938;2023-04-24T12:36:10;1.20;;;1.20;;
2954;SDS011;1487;51.470;6.938;2023-04-24T12:38:38;1.02;;;0.93;;
2954;SDS011;1487;51.470;6.938;2023-04-24T12:41:11;3.00;;;0.80;;
2954;SDS011;1487;51.470;6.938;2023-04-24T12:43:39;2.55;;;0.88;;
2954;SDS011;1487;51.470;6.938;2023-04-24T12:46:17;0.60;;;0.50;;
2954;SDS011;1487;51.470;6.938;2023-04-24T12:48:44;1.45;;;1.25;;
2954;SDS011;1487;51.470;6.938;2023-04-24T12:51:11;0.50;;;0.50;;
2954;SDS011;1487;51.470;6.938;2023-04-24T12:53:37;0.70;;;0.50;;
2954;SDS011;1487;51.470;6.938;2023-04-24T12:56:05;0.70;;;0.60;;
2954;SDS011;1487;51.470;6.938;2023-04-24T12:58:33;1.15;;;0.90;;
2954;SDS011;1487;51.470;6.938;2023-04-24T13:01:00;0.50;;;0.40;;
2954;SDS011;1487;51.470;6.938;2023-04-24T13:03:27;0.85;;;0.85;;
2954;SDS011;1487;51.470;6.938;2023-04-24T13:05:54;1.25;;;0.93;;
2954;SDS011;1487;51.470;6.938;2023-04-24T13:08:20;0.60;;;0.50;;
2954;SDS011;1487;51.470;6.938;2023-04-24T13:10:47;1.60;;;1.50;;
2954;SDS011;1487;51.470;6.938;2023-04-24T13:13:14;0.50;;;0.40;;
2954;SDS011;1487;51.470;6.938;2023-04-24T13:15:42;0.50;;;0.40;;
2954;SDS011;1487;51.470;6.938;2023-04-24T13:18:09;1.08;;;0.80;;
2954;SDS011;1487;51.470;6.938;2023-04-24T13:20:36;1.25;;;1.02;;
2954;SDS011;1487;51.470;6.938;2023-04-24T13:23:03;0.50;;;0.40;;
2954;SDS011;1487;51.470;6.938;2023-04-24T13:25:34;0.50;;;0.40;;
2954;SDS011;1487;51.470;6.938;2023-04-24T13:28:02;0.50;;;0.40;;
2954;SDS011;1487;51.470;6.938;2023-04-24T13:30:29;3.08;;;0.85;;
2954;SDS011;1487;51.470;6.938;2023-04-24T13:32:57;0.60;;;0.45;;
2954;SDS011;1487;51.470;6.938;2023-04-24T13:35:24;0.70;;;0.52;;
2954;SDS011;1487;51.470;6.938;2023-04-24T13:37:50;0.60;;;0.50;;
2954;SDS011;1487;51.470;6.938;2023-04-24T13:40:17;1.95;;;1.02;;
2954;SDS011;1487;51.470;6.938;2023-04-24T13:42:44;1.83;;;1.35;;
2954;SDS011;1487;51.470;6.938;2023-04-24T13:45:11;0.77;;;0.68;;
2954;SDS011;1487;51.470;6.938;2023-04-24T13:47:38;1.05;;;0.95;;
2954;SDS011;1487;51.470;6.938;2023-04-24T13:50:08;0.50;;;0.40;;
2954;SDS011;1487;51.470;6.938;2023-04-24T13:52:35;1.07;;;0.83;;
2954;SDS011;1487;51.470;6.938;2023-04-24T13:55:02;0.60;;;0.60;;
2954;SDS011;1487;51.470;6.938;2023-04-24T13:57:29;0.50;;;0.40;;
2954;SDS011;1487;51.470;6.938;2023-04-24T13:59:57;0.70;;;0.50;;
2954;SDS011;1487;51.470;6.938;2023-04-24T14:02:26;0.50;;;0.40;;
2954;SDS011;1487;51.470;6.938;2023-04-24T14:04:53;0.50;;;0.40;;
2954;SDS011;1487;51.470;6.938;2023-04-24T14:07:21;0.80;;;0.65;;
2954;SDS011;1487;51.470;6.938;2023-04-24T14:09:48;1.37;;;1.27;;
2954;SDS011;1487;51.470;6.938;2023-04-24T14:12:14;0.50;;;0.40;;
2954;SDS011;1487;51.470;6.938;2023-04-24T14:14:44;6.03;;;1.23;;
2954;SDS011;1487;51.470;6.938;2023-04-24T14:17:12;0.70;;;0.40;;
2954;SDS011;1487;51.470;6.938;2023-04-24T14:19:38;0.60;;;0.52;;
2954;SDS011;1487;51.470;6.938;2023-04-24T14:22:05;0.50;;;0.40;;
2954;SDS011;1487;51.470;6.938;2023-04-24T14:24:33;0.50;;;0.50;;
2954;SDS011;1487;51.470;6.938;2023-04-24T14:27:01;1.43;;;1.33;;
2954;SDS011;1487;51.470;6.938;2023-04-24T14:29:28;0.50;;;0.40;;
2954;SDS011;1487;51.470;6.938;2023-04-24T14:31:55;0.50;;;0.40;;
2954;SDS011;1487;51.470;6.938;2023-04-24T14:34:21;8.30;;;0.98;;
2954;SDS011;1487;51.470;6.938;2023-04-24T14:36:48;0.60;;;0.50;;
2954;SDS011;1487;51.470;6.938;2023-04-24T14:39:15;0.70;;;0.60;;
2954;SDS011;1487;51.470;6.938;2023-04-24T14:41:43;0.60;;;0.60;;
2954;SDS011;1487;51.470;6.938;2023-04-24T14:44:10;0.50;;;0.40;;
2954;SDS011;1487;51.470;6.938;2023-04-24T14:46:36;0.50;;;0.40;;
2954;SDS011;1487;51.470;6.938;2023-04-24T14:49:03;0.50;;;0.40;;
2954;SDS011;1487;51.470;6.938;2023-04-24T14:51:30;2.47;;;2.38;;
2954;SDS011;1487;51.470;6.938;2023-04-24T14:53:57;0.60;;;0.60;;
2954;SDS011;1487;51.470;6.938;2023-04-24T14:56:24;0.73;;;0.73;;
2954;SDS011;1487;51.470;6.938;2023-04-24T14:58:52;1.40;;;1.30;;
2954;SDS011;1487;51.470;6.938;2023-04-24T15:01:19;0.50;;;0.40;;
2954;SDS011;1487;51.470;6.938;2023-04-24T15:03:46;0.88;;;0.88;;
2954;SDS011;1487;51.470;6.938;2023-04-24T15:06:13;0.50;;;0.40;;
2954;SDS011;1487;51.470;6.938;2023-04-24T15:08:39;1.80;;;1.20;;
2954;SDS011;1487;51.470;6.938;2023-04-24T15:11:07;2.15;;;1.55;;
2954;SDS011;1487;51.470;6.938;2023-04-24T15:13:34;1.00;;;0.90;;
2954;SDS011;1487;51.470;6.938;2023-04-24T15:16:02;0.50;;;0.40;;
2954;SDS011;1487;51.470;6.938;2023-04-24T15:18:29;1.95;;;1.17;;
2954;SDS011;1487;51.470;6.938;2023-04-24T15:20:56;0.68;;;0.63;;
2954;SDS011;1487;51.470;6.938;2023-04-24T15:23:23;0.85;;;0.60;;